createdAt,value
2022-09-24T00:00:45.489Z,1008.80
2022-09-24T00:01:45.555Z,1008.76
2022-09-24T00:02:45.539Z,1008.78
2022-09-24T00:03:45.487Z,1008.77
2022-09-24T00:04:45.461Z,1008.77
2022-09-24T00:05:45.429Z,1008.80
2022-09-24T00:06:45.443Z,1008.79
2022-09-24T00:07:45.422Z,1008.75
2022-09-24T00:08:45.424Z,1008.72
2022-09-24T00:09:45.392Z,1008.76
2022-09-24T00:10:45.373Z,1008.77
2022-09-24T00:11:45.573Z,1008.75
2022-09-24T00:12:45.406Z,1008.66
2022-09-24T00:13:45.356Z,1008.76
2022-09-24T00:14:45.313Z,1008.76
2022-09-24T00:15:45.335Z,1008.71
2022-09-24T00:16:45.355Z,1008.73
2022-09-24T00:17:45.285Z,1008.77
2022-09-24T00:18:45.262Z,1008.74
2022-09-24T00:19:45.255Z,1008.78
2022-09-24T00:20:45.241Z,1008.77
2022-09-24T00:21:45.247Z,1008.73
2022-09-24T00:22:45.231Z,1008.73
2022-09-24T00:23:45.211Z,1008.77
2022-09-24T00:24:45.207Z,1008.65
2022-09-24T00:25:45.173Z,1008.73
2022-09-24T00:26:45.174Z,1008.74
2022-09-24T00:27:45.155Z,1008.67
2022-09-24T00:28:45.162Z,1008.67
2022-09-24T00:29:45.142Z,1008.67
2022-09-24T00:30:45.104Z,1008.68
2022-09-24T00:31:45.152Z,1008.63
2022-09-24T00:32:45.100Z,1008.69
2022-09-24T00:33:45.707Z,1008.71
2022-09-24T00:34:45.154Z,1008.65
2022-09-24T00:35:45.044Z,1008.69
2022-09-24T00:36:45.043Z,1008.66
2022-09-24T00:37:45.035Z,1008.66
2022-09-24T00:38:45.011Z,1008.65
2022-09-24T00:39:45.022Z,1008.61
2022-09-24T00:40:45.067Z,1008.67
2022-09-24T00:41:45.023Z,1008.60
2022-09-24T00:42:44.972Z,1008.63
2022-09-24T00:43:44.952Z,1008.64
2022-09-24T00:44:44.992Z,1008.58
2022-09-24T00:45:44.932Z,1008.59
2022-09-24T00:46:44.939Z,1008.65
2022-09-24T00:47:44.894Z,1008.61
2022-09-24T00:48:44.875Z,1008.61
2022-09-24T00:49:44.945Z,1008.62
2022-09-24T00:50:44.855Z,1008.59
2022-09-24T00:51:44.875Z,1008.49
2022-09-24T00:52:44.834Z,1008.53
2022-09-24T00:53:44.843Z,1008.52
2022-09-24T00:54:44.794Z,1008.49
2022-09-24T00:55:51.802Z,1008.51
2022-09-24T00:56:44.755Z,1008.49
2022-09-24T00:57:44.754Z,1008.46
2022-09-24T00:58:44.735Z,1008.43
2022-09-24T00:59:44.724Z,1008.41
2022-09-24T01:00:44.868Z,1008.43
2022-09-24T01:01:44.744Z,1008.42
2022-09-24T01:02:44.696Z,1008.37
2022-09-24T01:03:44.686Z,1008.42
2022-09-24T01:04:44.667Z,1008.39
2022-09-24T01:05:44.677Z,1008.39
2022-09-24T01:06:44.644Z,1008.41
2022-09-24T01:07:44.636Z,1008.36
2022-09-24T01:08:44.604Z,1008.38
2022-09-24T01:09:44.597Z,1008.38
2022-09-24T01:10:44.585Z,1008.32
2022-09-24T01:11:44.566Z,1008.36
2022-09-24T01:12:44.572Z,1008.37
2022-09-24T01:13:44.546Z,1008.31
2022-09-24T01:14:44.525Z,1008.26
2022-09-24T01:15:44.564Z,1008.29
2022-09-24T01:16:44.563Z,1008.27
2022-09-24T01:17:44.504Z,1008.25
2022-09-24T01:18:44.489Z,1008.28
2022-09-24T01:19:44.477Z,1008.27
2022-09-24T01:20:44.456Z,1008.28
2022-09-24T01:21:44.476Z,1008.28
2022-09-24T01:22:44.456Z,1008.26
2022-09-24T01:23:48.623Z,1008.28
2022-09-24T01:24:44.408Z,1008.30
2022-09-24T01:25:44.399Z,1008.25
2022-09-24T01:26:44.388Z,1008.31
2022-09-24T01:27:44.379Z,1008.32
2022-09-24T01:28:44.362Z,1008.32
2022-09-24T01:29:44.347Z,1008.31
2022-09-24T01:30:44.336Z,1008.32
2022-09-24T01:31:44.458Z,1008.32
2022-09-24T01:32:44.296Z,1008.31
2022-09-24T01:33:44.287Z,1008.32
2022-09-24T01:34:44.275Z,1008.33
2022-09-24T01:35:44.255Z,1008.28
2022-09-24T01:36:44.246Z,1008.26
2022-09-24T01:37:44.249Z,1008.27
2022-09-24T01:38:44.226Z,1008.26
2022-09-24T01:39:44.214Z,1008.22
2022-09-24T01:40:44.265Z,1008.24
2022-09-24T01:41:44.189Z,1008.25
2022-09-24T01:42:44.188Z,1008.24
2022-09-24T01:43:44.179Z,1008.26
2022-09-24T01:44:44.149Z,1008.18
2022-09-24T01:45:44.142Z,1008.21
2022-09-24T01:46:44.176Z,1008.19
2022-09-24T01:47:44.117Z,1008.18
2022-09-24T01:48:44.105Z,1008.15
2022-09-24T01:49:44.077Z,1008.12
2022-09-24T01:50:44.066Z,1008.08
2022-09-24T01:51:44.062Z,1008.05
2022-09-24T01:52:44.041Z,1008.09
2022-09-24T01:53:44.036Z,1008.11
2022-09-24T01:54:44.016Z,1008.11
2022-09-24T01:55:44.005Z,1008.06
2022-09-24T01:56:43.990Z,1008.07
2022-09-24T01:57:43.979Z,1008.08
2022-09-24T01:58:43.968Z,1008.11
2022-09-24T01:59:43.959Z,1008.03
2022-09-24T02:00:44.013Z,1008.01
2022-09-24T02:01:43.958Z,1008.07
2022-09-24T02:02:43.919Z,1008.06
2022-09-24T02:03:43.906Z,1008.04
2022-09-24T02:04:43.888Z,1008.05
2022-09-24T02:05:43.888Z,1007.99
2022-09-24T02:06:43.856Z,1008.02
2022-09-24T02:07:43.847Z,1008.02
2022-09-24T02:08:43.838Z,1007.97
2022-09-24T02:09:43.849Z,1007.97
2022-09-24T02:10:43.828Z,1007.93
2022-09-24T02:11:43.816Z,1007.92
2022-09-24T02:12:43.788Z,1007.97
2022-09-24T02:13:43.776Z,1007.98
2022-09-24T02:14:43.759Z,1007.95
2022-09-24T02:15:43.776Z,1007.93
2022-09-24T02:16:43.753Z,1007.97
2022-09-24T02:17:43.736Z,1007.91
2022-09-24T02:18:43.728Z,1007.96
2022-09-24T02:19:43.699Z,1007.98
2022-09-24T02:20:43.689Z,1007.93
2022-09-24T02:21:43.678Z,1007.99
2022-09-24T02:22:43.657Z,1007.95
2022-09-24T02:23:43.649Z,1007.93
2022-09-24T02:24:43.637Z,1007.95
2022-09-24T02:25:43.639Z,1007.95
2022-09-24T02:26:43.611Z,1007.88
2022-09-24T02:27:43.599Z,1007.92
2022-09-24T02:28:43.568Z,1007.92
2022-09-24T02:29:43.559Z,1007.92
2022-09-24T02:30:43.556Z,1007.90
2022-09-24T02:31:43.660Z,1007.87
2022-09-24T02:32:43.517Z,1007.82
2022-09-24T02:33:43.508Z,1007.87
2022-09-24T02:34:43.499Z,1007.88
2022-09-24T02:35:43.499Z,1007.87
2022-09-24T02:36:43.539Z,1007.92
2022-09-24T02:37:43.479Z,1007.87
2022-09-24T02:38:43.459Z,1007.85
2022-09-24T02:39:43.441Z,1007.88
2022-09-24T02:40:43.477Z,1007.90
2022-09-24T02:41:43.420Z,1007.86
2022-09-24T02:42:43.470Z,1007.86
2022-09-24T02:43:43.391Z,1007.83
2022-09-24T02:44:43.369Z,1007.85
2022-09-24T02:45:43.362Z,1007.83
2022-09-24T02:46:43.446Z,1007.84
2022-09-24T02:47:43.350Z,1007.81
2022-09-24T02:48:43.318Z,1007.82
2022-09-24T02:49:43.309Z,1007.83
2022-09-24T02:50:43.288Z,1007.78
2022-09-24T02:51:43.280Z,1007.77
2022-09-24T02:52:43.341Z,1007.74
2022-09-24T02:53:43.262Z,1007.81
2022-09-24T02:54:43.252Z,1007.77
2022-09-24T02:55:43.240Z,1007.82
2022-09-24T02:56:43.233Z,1007.73
2022-09-24T02:57:43.210Z,1007.77
2022-09-24T02:58:43.202Z,1007.75
2022-09-24T02:59:43.182Z,1007.72
2022-09-24T03:00:43.169Z,1007.70
2022-09-24T03:01:43.334Z,1007.75
2022-09-24T03:02:43.293Z,1007.74
2022-09-24T03:03:43.138Z,1007.72
2022-09-24T03:04:43.174Z,1007.70
2022-09-24T03:05:43.089Z,1007.72
2022-09-24T03:06:43.089Z,1007.70
2022-09-24T03:07:43.070Z,1007.70
2022-09-24T03:08:43.062Z,1007.70
2022-09-24T03:09:43.070Z,1007.70
2022-09-24T03:10:43.050Z,1007.66
2022-09-24T03:11:43.031Z,1007.66
2022-09-24T03:12:43.033Z,1007.66
2022-09-24T03:13:43.014Z,1007.65
2022-09-24T03:14:42.992Z,1007.65
2022-09-24T03:15:43.035Z,1007.66
2022-09-24T03:16:42.971Z,1007.62
2022-09-24T03:17:42.941Z,1007.67
2022-09-24T03:18:42.931Z,1007.58
2022-09-24T03:19:42.920Z,1007.65
2022-09-24T03:20:42.921Z,1007.62
2022-09-24T03:21:42.937Z,1007.60
2022-09-24T03:22:42.888Z,1007.61
2022-09-24T03:23:42.883Z,1007.61
2022-09-24T03:24:42.861Z,1007.61
2022-09-24T03:25:42.842Z,1007.62
2022-09-24T03:26:42.859Z,1007.64
2022-09-24T03:27:42.822Z,1007.64
2022-09-24T03:28:42.814Z,1007.58
2022-09-24T03:29:42.794Z,1007.58
2022-09-24T03:30:42.790Z,1007.59
2022-09-24T03:31:42.815Z,1007.61
2022-09-24T03:32:42.765Z,1007.61
2022-09-24T03:33:42.741Z,1007.63
2022-09-24T03:34:42.732Z,1007.61
2022-09-24T03:35:42.711Z,1007.61
2022-09-24T03:36:42.709Z,1007.64
2022-09-24T03:37:47.057Z,1007.61
2022-09-24T03:38:43.682Z,1007.57
2022-09-24T03:39:42.663Z,1007.55
2022-09-24T03:40:42.717Z,1007.54
2022-09-24T03:41:42.633Z,1007.55
2022-09-24T03:42:42.654Z,1007.54
2022-09-24T03:43:42.613Z,1007.50
2022-09-24T03:44:42.613Z,1007.51
2022-09-24T03:45:42.593Z,1007.53
2022-09-24T03:46:42.592Z,1007.47
2022-09-24T03:47:42.564Z,1007.50
2022-09-24T03:48:42.591Z,1007.48
2022-09-24T03:49:42.551Z,1007.50
2022-09-24T03:50:42.521Z,1007.47
2022-09-24T03:51:42.512Z,1007.43
2022-09-24T03:52:42.502Z,1007.48
2022-09-24T03:53:42.486Z,1007.48
2022-09-24T03:54:42.495Z,1007.44
2022-09-24T03:55:42.454Z,1007.46
2022-09-24T03:56:42.451Z,1007.44
2022-09-24T03:57:42.442Z,1007.43
2022-09-24T03:58:42.492Z,1007.44
2022-09-24T03:59:42.413Z,1007.43
2022-09-24T04:00:42.411Z,1007.44
2022-09-24T04:01:42.437Z,1007.48
2022-09-24T04:02:42.395Z,1007.52
2022-09-24T04:03:42.353Z,1007.50
2022-09-24T04:04:42.343Z,1007.46
2022-09-24T04:05:42.351Z,1007.49
2022-09-24T04:06:42.324Z,1007.43
2022-09-24T04:07:42.315Z,1007.43
2022-09-24T04:08:42.326Z,1007.45
2022-09-24T04:09:42.293Z,1007.43
2022-09-24T04:10:42.266Z,1007.43
2022-09-24T04:11:42.254Z,1007.44
2022-09-24T04:12:42.253Z,1007.48
2022-09-24T04:13:42.243Z,1007.53
2022-09-24T04:14:42.221Z,1007.51
2022-09-24T04:15:42.260Z,1007.47
2022-09-24T04:16:42.191Z,1007.47
2022-09-24T04:17:42.214Z,1007.51
2022-09-24T04:18:42.166Z,1007.54
2022-09-24T04:19:42.202Z,1007.54
2022-09-24T04:20:42.143Z,1007.53
2022-09-24T04:21:42.135Z,1007.48
2022-09-24T04:22:42.115Z,1007.39
2022-09-24T04:23:42.096Z,1007.42
2022-09-24T04:24:42.103Z,1007.46
2022-09-24T04:25:42.089Z,1007.47
2022-09-24T04:26:42.075Z,1007.44
2022-09-24T04:27:42.054Z,1007.47
2022-09-24T04:28:42.045Z,1007.42
2022-09-24T04:29:42.016Z,1007.39
2022-09-24T04:30:42.013Z,1007.36
2022-09-24T04:31:42.053Z,1007.42
2022-09-24T04:32:41.993Z,1007.44
2022-09-24T04:33:41.963Z,1007.47
2022-09-24T04:34:41.966Z,1007.45
2022-09-24T04:35:41.944Z,1007.43
2022-09-24T04:36:41.964Z,1007.42
2022-09-24T04:37:41.923Z,1007.43
2022-09-24T04:38:41.917Z,1007.40
2022-09-24T04:39:41.896Z,1007.34
2022-09-24T04:40:41.951Z,1007.34
2022-09-24T04:41:41.883Z,1007.41
2022-09-24T04:42:41.865Z,1007.37
2022-09-24T04:43:41.847Z,1007.35
2022-09-24T04:44:41.835Z,1007.34
2022-09-24T04:45:41.804Z,1007.33
2022-09-24T04:46:41.919Z,1007.36
2022-09-24T04:47:41.807Z,1007.35
2022-09-24T04:48:41.773Z,1007.35
2022-09-24T04:49:41.754Z,1007.32
2022-09-24T04:50:45.765Z,1007.33
2022-09-24T04:51:41.724Z,1007.37
2022-09-24T04:52:41.724Z,1007.38
2022-09-24T04:53:41.727Z,1007.30
2022-09-24T04:54:41.706Z,1007.30
2022-09-24T04:55:41.881Z,1007.32
2022-09-24T04:56:41.694Z,1007.32
2022-09-24T04:57:41.661Z,1007.35
2022-09-24T04:58:41.665Z,1007.40
2022-09-24T04:59:41.636Z,1007.32
2022-09-24T05:00:41.624Z,1007.32
2022-09-24T05:01:41.777Z,1007.34
2022-09-24T05:02:41.625Z,1007.35
2022-09-24T05:03:41.585Z,1007.35
2022-09-24T05:04:41.645Z,1007.30
2022-09-24T05:05:41.559Z,1007.31
2022-09-24T05:06:41.555Z,1007.32
2022-09-24T05:07:41.568Z,1007.32
2022-09-24T05:08:41.526Z,1007.29
2022-09-24T05:09:41.515Z,1007.24
2022-09-24T05:10:41.518Z,1007.30
2022-09-24T05:11:41.494Z,1007.33
2022-09-24T05:12:41.483Z,1007.26
2022-09-24T05:13:41.455Z,1007.29
2022-09-24T05:14:41.445Z,1007.35
2022-09-24T05:15:43.368Z,1007.35
2022-09-24T05:16:41.537Z,1007.34
2022-09-24T05:17:41.420Z,1007.38
2022-09-24T05:18:41.412Z,1007.31
2022-09-24T05:19:41.378Z,1007.38
2022-09-24T05:20:41.368Z,1007.36
2022-09-24T05:21:41.377Z,1007.41
2022-09-24T05:22:41.346Z,1007.44
2022-09-24T05:23:41.337Z,1007.41
2022-09-24T05:24:41.319Z,1007.41
2022-09-24T05:25:41.295Z,1007.41
2022-09-24T05:26:41.286Z,1007.43
2022-09-24T05:27:41.267Z,1007.45
2022-09-24T05:28:41.276Z,1007.50
2022-09-24T05:29:41.283Z,1007.46
2022-09-24T05:30:41.247Z,1007.45
2022-09-24T05:31:41.283Z,1007.45
2022-09-24T05:32:41.226Z,1007.40
2022-09-24T05:33:41.228Z,1007.43
2022-09-24T05:34:41.197Z,1007.47
2022-09-24T05:35:41.204Z,1007.48
2022-09-24T05:36:41.168Z,1007.46
2022-09-24T05:37:41.168Z,1007.49
2022-09-24T05:38:41.928Z,1007.45
2022-09-24T05:39:41.131Z,1007.45
2022-09-24T05:40:41.226Z,1007.42
2022-09-24T05:41:41.090Z,1007.42
2022-09-24T05:42:41.079Z,1007.40
2022-09-24T05:43:41.065Z,1007.43
2022-09-24T05:44:41.064Z,1007.45
2022-09-24T05:45:41.037Z,1007.39
2022-09-24T05:46:41.081Z,1007.39
2022-09-24T05:47:41.016Z,1007.38
2022-09-24T05:48:41.016Z,1007.40
2022-09-24T05:49:41.081Z,1007.43
2022-09-24T05:50:41.050Z,1007.39
2022-09-24T05:51:40.973Z,1007.36
2022-09-24T05:52:40.959Z,1007.38
2022-09-24T05:53:40.946Z,1007.41
2022-09-24T05:54:40.940Z,1007.40
2022-09-24T05:55:40.919Z,1007.36
2022-09-24T05:56:40.921Z,1007.39
2022-09-24T05:57:40.878Z,1007.41
2022-09-24T05:58:40.885Z,1007.32
2022-09-24T05:59:40.849Z,1007.29
2022-09-24T06:00:41.036Z,1007.31
2022-09-24T06:01:40.910Z,1007.33
2022-09-24T06:02:40.860Z,1007.33
2022-09-24T06:03:40.813Z,1007.31
2022-09-24T06:04:40.790Z,1007.37
2022-09-24T06:05:40.798Z,1007.37
2022-09-24T06:06:40.759Z,1007.36
2022-09-24T06:07:40.759Z,1007.42
2022-09-24T06:08:40.799Z,1007.41
2022-09-24T06:09:40.729Z,1007.39
2022-09-24T06:10:40.708Z,1007.42
2022-09-24T06:11:41.299Z,1007.45
2022-09-24T06:12:40.679Z,1007.43
2022-09-24T06:13:40.693Z,1007.48
2022-09-24T06:14:40.668Z,1007.48
2022-09-24T06:15:40.765Z,1007.48
2022-09-24T06:16:40.707Z,1007.45
2022-09-24T06:17:40.637Z,1007.47
2022-09-24T06:18:40.620Z,1007.49
2022-09-24T06:19:40.601Z,1007.49
2022-09-24T06:20:40.582Z,1007.47
2022-09-24T06:21:40.575Z,1007.50
2022-09-24T06:22:40.550Z,1007.51
2022-09-24T06:23:40.552Z,1007.50
2022-09-24T06:24:40.549Z,1007.51
2022-09-24T06:25:40.519Z,1007.52
2022-09-24T06:26:40.510Z,1007.56
2022-09-24T06:27:40.507Z,1007.56
2022-09-24T06:28:40.501Z,1007.51
2022-09-24T06:29:40.473Z,1007.53
2022-09-24T06:30:40.487Z,1007.49
2022-09-24T06:31:40.483Z,1007.50
2022-09-24T06:32:40.451Z,1007.50
2022-09-24T06:33:40.434Z,1007.56
2022-09-24T06:34:40.414Z,1007.51
2022-09-24T06:35:40.392Z,1007.51
2022-09-24T06:36:40.402Z,1007.55
2022-09-24T06:37:40.363Z,1007.56
2022-09-24T06:38:40.389Z,1007.55
2022-09-24T06:39:40.343Z,1007.57
2022-09-24T06:40:40.432Z,1007.56
2022-09-24T06:41:40.329Z,1007.58
2022-09-24T06:42:40.300Z,1007.58
2022-09-24T06:43:40.296Z,1007.56
2022-09-24T06:44:40.295Z,1007.57
2022-09-24T06:45:40.341Z,1007.58
2022-09-24T06:46:40.458Z,1007.51
2022-09-24T06:47:40.307Z,1007.52
2022-09-24T06:48:40.233Z,1007.57
2022-09-24T06:49:40.233Z,1007.59
2022-09-24T06:50:40.202Z,1007.54
2022-09-24T06:51:40.250Z,1007.58
2022-09-24T06:52:40.190Z,1007.55
2022-09-24T06:53:40.236Z,1007.56
2022-09-24T06:54:40.161Z,1007.57
2022-09-24T06:55:47.203Z,1007.55
2022-09-24T06:56:40.167Z,1007.55
2022-09-24T06:57:40.147Z,1007.57
2022-09-24T06:58:40.108Z,1007.59
2022-09-24T06:59:40.110Z,1007.62
2022-09-24T07:00:40.122Z,1007.57
2022-09-24T07:01:40.260Z,1007.61
2022-09-24T07:02:40.168Z,1007.59
2022-09-24T07:03:40.060Z,1007.61
2022-09-24T07:04:40.040Z,1007.64
2022-09-24T07:05:43.524Z,1007.60
2022-09-24T07:06:39.999Z,1007.62
2022-09-24T07:07:40.000Z,1007.62
2022-09-24T07:08:39.999Z,1007.65
2022-09-24T07:09:39.990Z,1007.65
2022-09-24T07:10:39.960Z,1007.62
2022-09-24T07:11:40.012Z,1007.63
2022-09-24T07:12:39.941Z,1007.60
2022-09-24T07:13:39.988Z,1007.63
2022-09-24T07:14:39.918Z,1007.60
2022-09-24T07:15:40.021Z,1007.62
2022-09-24T07:16:39.870Z,1007.64
2022-09-24T07:17:39.903Z,1007.59
2022-09-24T07:18:39.867Z,1007.58
2022-09-24T07:19:39.922Z,1007.65
2022-09-24T07:20:39.829Z,1007.63
2022-09-24T07:21:39.813Z,1007.63
2022-09-24T07:22:39.948Z,1007.69
2022-09-24T07:23:39.802Z,1007.69
2022-09-24T07:24:39.790Z,1007.70
2022-09-24T07:25:39.767Z,1007.67
2022-09-24T07:26:39.741Z,1007.71
2022-09-24T07:27:39.731Z,1007.71
2022-09-24T07:28:39.730Z,1007.66
2022-09-24T07:29:39.714Z,1007.73
2022-09-24T07:30:39.726Z,1007.71
2022-09-24T07:31:39.773Z,1007.71
2022-09-24T07:32:39.668Z,1007.68
2022-09-24T07:33:39.650Z,1007.72
2022-09-24T07:34:39.631Z,1007.73
2022-09-24T07:35:39.634Z,1007.74
2022-09-24T07:36:39.620Z,1007.72
2022-09-24T07:37:39.626Z,1007.72
2022-09-24T07:38:39.588Z,1007.71
2022-09-24T07:39:39.632Z,1007.73
2022-09-24T07:40:39.613Z,1007.76
2022-09-24T07:41:42.145Z,1007.73
2022-09-24T07:42:39.542Z,1007.73
2022-09-24T07:43:39.554Z,1007.73
2022-09-24T07:44:39.512Z,1007.76
2022-09-24T07:45:40.505Z,1007.73
2022-09-24T07:46:39.551Z,1007.76
2022-09-24T07:47:39.481Z,1007.79
2022-09-24T07:48:39.452Z,1007.73
2022-09-24T07:49:39.552Z,1007.76
2022-09-24T07:50:39.433Z,1007.77
2022-09-24T07:51:39.411Z,1007.75
2022-09-24T07:52:39.399Z,1007.80
2022-09-24T07:53:39.402Z,1007.76
2022-09-24T07:54:39.380Z,1007.79
2022-09-24T07:55:39.466Z,1007.77
2022-09-24T07:56:39.354Z,1007.80
2022-09-24T07:57:39.355Z,1007.75
2022-09-24T07:58:39.335Z,1007.75
2022-09-24T07:59:39.345Z,1007.80
2022-09-24T08:00:39.295Z,1007.79
2022-09-24T08:01:39.343Z,1007.79
2022-09-24T08:02:39.275Z,1007.80
2022-09-24T08:03:39.284Z,1007.82
2022-09-24T08:04:39.236Z,1007.82
2022-09-24T08:05:39.223Z,1007.81
2022-09-24T08:06:43.618Z,1007.84
2022-09-24T08:07:40.244Z,1007.80
2022-09-24T08:08:39.310Z,1007.85
2022-09-24T08:09:39.355Z,1007.83
2022-09-24T08:10:39.175Z,1007.81
2022-09-24T08:11:39.151Z,1007.76
2022-09-24T08:12:39.132Z,1007.78
2022-09-24T08:13:39.123Z,1007.74
2022-09-24T08:14:39.122Z,1007.73
2022-09-24T08:15:39.164Z,1007.67
2022-09-24T08:16:39.095Z,1007.75
2022-09-24T08:17:39.074Z,1007.73
2022-09-24T08:18:39.085Z,1007.72
2022-09-24T08:19:39.061Z,1007.79
2022-09-24T08:20:39.046Z,1007.76
2022-09-24T08:21:39.036Z,1007.76
2022-09-24T08:22:39.026Z,1007.83
2022-09-24T08:23:39.007Z,1007.84
2022-09-24T08:24:39.076Z,1007.82
2022-09-24T08:25:38.990Z,1007.81
2022-09-24T08:26:38.986Z,1007.78
2022-09-24T08:27:38.955Z,1007.72
2022-09-24T08:28:38.945Z,1007.68
2022-09-24T08:29:38.911Z,1007.75
2022-09-24T08:30:38.903Z,1007.72
2022-09-24T08:31:38.940Z,1007.74
2022-09-24T08:32:38.876Z,1007.73
2022-09-24T08:33:38.866Z,1007.71
2022-09-24T08:34:38.856Z,1007.76
2022-09-24T08:35:38.934Z,1007.75
2022-09-24T08:36:42.749Z,1007.77
2022-09-24T08:37:38.826Z,1007.78
2022-09-24T08:38:38.823Z,1007.77
2022-09-24T08:39:39.576Z,1007.75
2022-09-24T08:40:38.869Z,1007.73
2022-09-24T08:41:38.769Z,1007.76
2022-09-24T08:42:38.748Z,1007.81
2022-09-24T08:43:38.736Z,1007.79
2022-09-24T08:44:38.725Z,1007.82
2022-09-24T08:45:38.726Z,1007.77
2022-09-24T08:46:38.789Z,1007.76
2022-09-24T08:47:38.686Z,1007.76
2022-09-24T08:48:38.688Z,1007.73
2022-09-24T08:49:38.668Z,1007.80
2022-09-24T08:50:38.676Z,1007.81
2022-09-24T08:51:38.638Z,1007.80
2022-09-24T08:52:38.718Z,1007.82
2022-09-24T08:53:38.621Z,1007.82
2022-09-24T08:54:38.673Z,1007.83
2022-09-24T08:55:38.601Z,1007.83
2022-09-24T08:56:38.584Z,1007.86
2022-09-24T08:57:38.568Z,1007.79
2022-09-24T08:58:44.106Z,1007.83
2022-09-24T08:59:39.558Z,1007.80
2022-09-24T09:00:38.518Z,1007.82
2022-09-24T09:01:38.558Z,1007.81
2022-09-24T09:02:38.712Z,1007.83
2022-09-24T09:03:38.481Z,1007.83
2022-09-24T09:04:38.526Z,1007.85
2022-09-24T09:05:38.453Z,1007.83
2022-09-24T09:06:38.449Z,1007.83
2022-09-24T09:07:38.430Z,1007.86
2022-09-24T09:09:39.400Z,1007.77
2022-09-24T09:10:38.408Z,1007.81
2022-09-24T09:11:38.369Z,1007.81
2022-09-24T09:12:38.381Z,1007.78
2022-09-24T09:13:38.339Z,1007.81
2022-09-24T09:14:42.031Z,1007.79
2022-09-24T09:15:38.367Z,1007.80
2022-09-24T09:16:38.313Z,1007.76
2022-09-24T09:17:38.311Z,1007.83
2022-09-24T09:18:38.302Z,1007.83
2022-09-24T09:19:38.282Z,1007.85
2022-09-24T09:20:38.428Z,1007.86
2022-09-24T09:21:38.251Z,1007.80
2022-09-24T09:22:38.332Z,1007.83
2022-09-24T09:23:38.210Z,1007.84
2022-09-24T09:24:38.201Z,1007.79
2022-09-24T09:25:38.188Z,1007.87
2022-09-24T09:26:38.170Z,1007.79
2022-09-24T09:27:38.179Z,1007.80
2022-09-24T09:28:38.151Z,1007.78
2022-09-24T09:29:38.139Z,1007.81
2022-09-24T09:30:38.121Z,1007.79
2022-09-24T09:31:38.205Z,1007.84
2022-09-24T09:32:38.391Z,1007.77
2022-09-24T09:33:38.104Z,1007.77
2022-09-24T09:34:38.090Z,1007.79
2022-09-24T09:35:38.077Z,1007.76
2022-09-24T09:36:38.054Z,1007.74
2022-09-24T09:37:38.055Z,1007.73
2022-09-24T09:38:38.063Z,1007.73
2022-09-24T09:39:38.012Z,1007.70
2022-09-24T09:40:38.023Z,1007.72
2022-09-24T09:41:38.173Z,1007.74
2022-09-24T09:42:37.963Z,1007.71
2022-09-24T09:43:37.965Z,1007.72
2022-09-24T09:44:37.954Z,1007.71
2022-09-24T09:45:37.948Z,1007.71
2022-09-24T09:46:37.938Z,1007.73
2022-09-24T09:47:37.906Z,1007.76
2022-09-24T09:48:37.917Z,1007.72
2022-09-24T09:49:37.895Z,1007.71
2022-09-24T09:50:37.996Z,1007.70
2022-09-24T09:51:37.866Z,1007.73
2022-09-24T09:52:37.836Z,1007.72
2022-09-24T09:53:37.828Z,1007.69
2022-09-24T09:54:37.822Z,1007.66
2022-09-24T09:55:37.854Z,1007.66
2022-09-24T09:56:37.785Z,1007.64
2022-09-24T09:57:37.773Z,1007.64
2022-09-24T09:58:37.765Z,1007.68
2022-09-24T09:59:37.753Z,1007.70
2022-09-24T10:00:37.735Z,1007.63
2022-09-24T10:01:37.736Z,1007.64
2022-09-24T10:02:37.784Z,1007.68
2022-09-24T10:03:37.753Z,1007.66
2022-09-24T10:04:37.687Z,1007.66
2022-09-24T10:05:37.747Z,1007.65
2022-09-24T10:06:37.668Z,1007.66
2022-09-24T10:07:37.677Z,1007.63
2022-09-24T10:08:37.647Z,1007.67
2022-09-24T10:09:37.639Z,1007.71
2022-09-24T10:10:37.627Z,1007.67
2022-09-24T10:11:37.597Z,1007.66
2022-09-24T10:12:37.574Z,1007.70
2022-09-24T10:13:37.577Z,1007.69
2022-09-24T10:14:37.557Z,1007.74
2022-09-24T10:15:41.860Z,1007.74
2022-09-24T10:16:38.618Z,1007.72
2022-09-24T10:17:37.508Z,1007.72
2022-09-24T10:18:37.510Z,1007.74
2022-09-24T10:19:37.497Z,1007.76
2022-09-24T10:20:37.488Z,1007.70
2022-09-24T10:21:37.486Z,1007.75
2022-09-24T10:22:37.460Z,1007.76
2022-09-24T10:23:37.446Z,1007.70
2022-09-24T10:24:37.449Z,1007.73
2022-09-24T10:25:37.420Z,1007.71
2022-09-24T10:26:41.025Z,1007.70
2022-09-24T10:27:38.392Z,1007.58
2022-09-24T10:28:37.378Z,1007.74
2022-09-24T10:29:37.350Z,1007.76
2022-09-24T10:30:37.341Z,1007.73
2022-09-24T10:31:37.373Z,1007.66
2022-09-24T10:32:37.330Z,1007.64
2022-09-24T10:33:37.349Z,1007.63
2022-09-24T10:34:37.298Z,1007.61
2022-09-24T10:35:37.293Z,1007.61
2022-09-24T10:36:37.280Z,1007.62
2022-09-24T10:37:37.273Z,1007.60
2022-09-24T10:38:37.262Z,1007.59
2022-09-24T10:39:37.241Z,1007.58
2022-09-24T10:40:38.521Z,1007.60
2022-09-24T10:41:37.358Z,1007.61
2022-09-24T10:42:37.204Z,1007.56
2022-09-24T10:43:37.181Z,1007.59
2022-09-24T10:44:37.210Z,1007.56
2022-09-24T10:45:37.152Z,1007.54
2022-09-24T10:46:37.263Z,1007.56
2022-09-24T10:47:37.207Z,1007.60
2022-09-24T10:48:37.141Z,1007.55
2022-09-24T10:49:37.112Z,1007.52
2022-09-24T10:50:37.111Z,1007.57
2022-09-24T10:51:37.073Z,1007.52
2022-09-24T10:52:37.148Z,1007.51
2022-09-24T10:53:37.043Z,1007.53
2022-09-24T10:54:37.064Z,1007.51
2022-09-24T10:55:37.024Z,1007.51
2022-09-24T10:56:39.843Z,1007.52
2022-09-24T10:57:38.003Z,1007.52
2022-09-24T10:58:37.003Z,1007.53
2022-09-24T10:59:37.089Z,1007.53
2022-09-24T11:00:36.965Z,1007.54
2022-09-24T11:01:37.098Z,1007.57
2022-09-24T11:02:36.991Z,1007.57
2022-09-24T11:03:36.965Z,1007.51
2022-09-24T11:04:39.072Z,1007.54
2022-09-24T11:05:36.904Z,1007.57
2022-09-24T11:06:36.886Z,1007.51
2022-09-24T11:07:36.873Z,1007.52
2022-09-24T11:08:36.856Z,1007.51
2022-09-24T11:09:36.836Z,1007.51
2022-09-24T11:10:36.836Z,1007.48
2022-09-24T11:11:36.823Z,1007.45
2022-09-24T11:12:36.806Z,1007.45
2022-09-24T11:13:36.793Z,1007.43
2022-09-24T11:14:36.778Z,1007.47
2022-09-24T11:15:36.820Z,1007.45
2022-09-24T11:16:36.775Z,1007.45
2022-09-24T11:17:36.736Z,1007.49
2022-09-24T11:18:36.776Z,1007.55
2022-09-24T11:19:36.723Z,1007.51
2022-09-24T11:20:36.727Z,1007.52
2022-09-24T11:21:36.707Z,1007.53
2022-09-24T11:22:36.679Z,1007.54
2022-09-24T11:23:36.658Z,1007.51
2022-09-24T11:24:36.657Z,1007.50
2022-09-24T11:25:36.640Z,1007.49
2022-09-24T11:26:36.685Z,1007.56
2022-09-24T11:27:36.598Z,1007.54
2022-09-24T11:28:36.596Z,1007.51
2022-09-24T11:29:37.508Z,1007.52
2022-09-24T11:30:36.567Z,1007.52
2022-09-24T11:31:36.584Z,1007.53
2022-09-24T11:32:36.569Z,1007.53
2022-09-24T11:33:36.538Z,1007.48
2022-09-24T11:34:36.530Z,1007.46
2022-09-24T11:35:36.510Z,1007.50
2022-09-24T11:36:37.200Z,1007.52
2022-09-24T11:37:36.490Z,1007.53
2022-09-24T11:38:36.491Z,1007.51
2022-09-24T11:39:36.449Z,1007.44
2022-09-24T11:40:36.516Z,1007.48
2022-09-24T11:41:36.418Z,1007.50
2022-09-24T11:42:36.412Z,1007.51
2022-09-24T11:43:36.411Z,1007.44
2022-09-24T11:44:36.389Z,1007.49
2022-09-24T11:45:36.369Z,1007.51
2022-09-24T11:46:36.455Z,1007.51
2022-09-24T11:47:36.353Z,1007.49
2022-09-24T11:48:36.382Z,1007.46
2022-09-24T11:49:36.341Z,1007.46
2022-09-24T11:50:36.320Z,1007.47
2022-09-24T11:51:36.294Z,1007.43
2022-09-24T11:52:36.293Z,1007.46
2022-09-24T11:53:36.273Z,1007.45
2022-09-24T11:54:36.270Z,1007.44
2022-09-24T11:55:36.272Z,1007.46
2022-09-24T11:56:36.248Z,1007.49
2022-09-24T11:57:36.582Z,1007.47
2022-09-24T11:58:36.209Z,1007.45
2022-09-24T11:59:36.194Z,1007.46
2022-09-24T12:00:36.202Z,1007.48
2022-09-24T12:01:36.234Z,1007.46
2022-09-24T12:02:36.235Z,1007.48
2022-09-24T12:03:36.179Z,1007.47
2022-09-24T12:04:36.135Z,1007.46
2022-09-24T12:05:36.114Z,1007.44
2022-09-24T12:06:36.145Z,1007.49